Mid Fortune — ZGCG8 — position and weather

sailwx.info

Track history (hours):
 
Tides and Currents Weather Stations Pressure Air Temp Water Temp Dewpoint Dewpoint Depression Visibility Wind Speed Wind Dir Waves Ship Positions

Mid Fortune

Last reported at 2014-Aug-19 06:32 UTC. Time now 2014-Aug-20 22:26 UTC.
Position N 23°02' E 117°14'.

Length 147 m; draft 8.2 m.

Type: Tanker. MMSI: 319182000.

Date/timePositionNaut miles runAvg speedWind from/ knotsBaromVisibWave heightAir tempDewpointWater temp
2014-Aug-19 06:32N 23°02' E 117°14'14412.0
2014-Aug-18 18:33N 24°32' E 119°16'  
2014-Aug-16 03:06N 36°42' E 123°44'2012.9
2014-Aug-16 01:32N 37°01' E 123°36'1712.5
2014-Aug-16 00:08N 37°18' E 123°32'712.9
2014-Aug-15 23:33N 37°26' E 123°30'1812.9
2014-Aug-15 22:09N 37°41' E 123°18'1014.0
2014-Aug-15 21:28N 37°48' E 123°10'1412.5
2014-Aug-15 20:18N 37°60' E 122°59'1714.2
2014-Aug-15 19:05N 38°05' E 122°38'4113.9
2014-Aug-15 16:08N 38°18' E 121°48'813.6
2014-Aug-15 15:31N 38°20' E 121°38'6014.1
2014-Aug-15 11:16N 38°36' E 120°24'10512.0
2014-Aug-15 02:32N 38°51' E 118°11'10 9.2
2014-Aug-15 01:26N 38°52' E 117°58'1011.5
2014-Aug-15 00:34N 38°57' E 117°47'1 1.2
2014-Aug-14 23:22N 38°57' E 117°45'0 0.0
2014-Aug-14 22:22N 38°57' E 117°45'0 0.0
2014-Aug-14 21:28N 38°57' E 117°45'0 0.0
2014-Aug-14 20:28N 38°57' E 117°45'0 0.0
2014-Aug-14 19:22N 38°57' E 117°45'0 0.0
2014-Aug-14 18:28N 38°57' E 117°45'0 0.0
2014-Aug-14 17:28N 38°57' E 117°45'0 0.0
2014-Aug-14 16:28N 38°57' E 117°45'0 0.0
2014-Aug-14 15:28N 38°57' E 117°45'0 0.0
2014-Aug-14 14:28N 38°57' E 117°45'0 0.0
2014-Aug-14 13:28N 38°57' E 117°45'0 0.0
2014-Aug-14 12:22N 38°57' E 117°45'0 0.0
2014-Aug-14 11:28N 38°57' E 117°45'0 0.0
2014-Aug-14 10:22N 38°57' E 117°45'0 0.0
2014-Aug-14 09:28N 38°57' E 117°45'0 0.0
2014-Aug-14 08:22N 38°57' E 117°45'0 0.0
2014-Aug-14 07:28N 38°57' E 117°45'0 0.0
2014-Aug-14 06:28N 38°57' E 117°45'0 0.0
2014-Aug-14 05:22N 38°57' E 117°45'0 0.0
2014-Aug-14 04:28N 38°57' E 117°45'0 0.0
2014-Aug-14 03:28N 38°57' E 117°45'0 0.0
2014-Aug-14 02:28N 38°57' E 117°45'0 0.0
2014-Aug-14 01:28N 38°57' E 117°45'0 0.0
2014-Aug-14 00:28N 38°57' E 117°45'0 0.0
2014-Aug-13 23:22N 38°57' E 117°45'0 0.0
2014-Aug-13 22:28N 38°57' E 117°45'0 0.0
2014-Aug-13 21:28N 38°57' E 117°45'0 0.0
2014-Aug-13 20:28N 38°57' E 117°45'0 0.0
2014-Aug-13 19:28N 38°57' E 117°45'0 0.0
2014-Aug-13 18:16N 38°57' E 117°45'0 0.0
2014-Aug-13 17:22N 38°57' E 117°45'0 0.0
2014-Aug-13 16:28N 38°57' E 117°45'0 0.0
2014-Aug-13 15:22N 38°57' E 117°45'0 0.0
2014-Aug-13 14:28N 38°57' E 117°45'0 0.0
2014-Aug-13 13:22N 38°57' E 117°45'0 0.0
2014-Aug-13 12:28N 38°57' E 117°45'0 0.0
2014-Aug-13 11:10N 38°57' E 117°45'0 0.0
2014-Aug-13 10:28N 38°57' E 117°45'0 0.0
2014-Aug-13 09:16N 38°57' E 117°45'0 0.0
2014-Aug-13 08:28N 38°57' E 117°45'0 0.0
2014-Aug-13 07:28N 38°57' E 117°45'0 0.0
2014-Aug-13 06:28N 38°57' E 117°45'0 0.0
2014-Aug-13 05:33N 38°57' E 117°45'4 4.2
2014-Aug-13 04:33N 38°56' E 117°50'8 7.8
2014-Aug-13 03:31N 38°54' E 117°60'0 0.1
2014-Aug-13 02:22N 38°54' E 118°00'0 0.0
2014-Aug-12 21:16N 38°54' E 118°00'0 0.0
2014-Aug-12 20:10N 38°54' E 118°00'0 0.2
2014-Aug-12 19:31N 38°54' E 117°60'0 0.0
2014-Aug-12 17:13N 38°54' E 117°60'0 0.0
2014-Aug-12 16:31N 38°54' E 117°60'0 0.0
2014-Aug-12 15:16N 38°54' E 117°60'0 0.1
2014-Aug-12 14:31N 38°54' E 118°00'0 0.0
2014-Aug-12 12:31N 38°54' E 118°00'0 0.0
2014-Aug-12 11:19N 38°54' E 118°00'0 0.0
2014-Aug-12 10:16N 38°54' E 118°00'0 0.1
2014-Aug-12 09:31N 38°54' E 118°00'0 0.0
2014-Aug-11 22:28N 38°54' E 118°00'0 0.0
2014-Aug-11 21:31N 38°54' E 118°00'0 0.0
2014-Aug-11 20:22N 38°54' E 118°00'0 0.0
2014-Aug-11 17:31N 38°54' E 117°60'0 0.0
2014-Aug-11 16:31N 38°54' E 117°60'0 0.1
2014-Aug-11 15:31N 38°54' E 117°60'0 0.1
2014-Aug-11 14:25N 38°54' E 118°00'0 0.1
2014-Aug-11 13:28N 38°54' E 118°00'0 0.0
2014-Aug-11 12:31N 38°54' E 118°00'0 0.0
2014-Aug-11 11:28N 38°54' E 118°00'0 0.0
2014-Aug-11 10:25N 38°54' E 118°00'0 0.0
2014-Aug-11 09:31N 38°54' E 118°00'0 0.1
2014-Aug-11 08:31N 38°54' E 118°00'0 0.0
2014-Aug-11 02:28N 38°54' E 117°60'0 0.1
2014-Aug-11 01:31N 38°54' E 118°00'0 0.0
2014-Aug-11 00:07N 38°54' E 118°00'0 0.0
2014-Aug-10 22:16N 38°54' E 118°00'0 0.0
2014-Aug-10 21:07N 38°54' E 118°00'0 0.0
2014-Aug-10 18:22N 38°54' E 118°00'0 0.1
2014-Aug-10 17:31N 38°54' E 118°00'0 0.0
2014-Aug-10 16:31N 38°54' E 117°60'0 0.0
2014-Aug-10 15:31N 38°54' E 117°60'0 0.1
2014-Aug-10 14:28N 38°54' E 118°00'0 0.1
2014-Aug-10 13:28N 38°54' E 118°00'0 0.0
2014-Aug-10 12:16N 38°54' E 118°00'0 0.0
2014-Aug-10 11:22N 38°54' E 118°00'0 0.0
2014-Aug-10 10:22N 38°54' E 118°00'0 0.0
2014-Aug-10 09:31N 38°54' E 118°00'0 0.0
2014-Aug-10 08:31N 38°54' E 118°00'0 0.0
2014-Aug-10 07:31N 38°54' E 118°00'0 0.1
2014-Aug-10 06:31N 38°54' E 118°00'0 0.1
2014-Aug-10 05:31N 38°54' E 117°60'0 0.1
2014-Aug-10 04:31N 38°54' E 117°60'0 0.0
2014-Aug-10 03:13N 38°54' E 117°60'0 0.1
2014-Aug-10 01:19N 38°54' E 118°00'0 0.1
2014-Aug-10 00:17N 38°54' E 118°00'5 5.3
2014-Aug-09 23:26N 38°55' E 118°06'10511.5
2014-Aug-09 14:19N 39°14' E 120°19'1113.7
2014-Aug-09 13:29N 39°19' E 120°32'8912.8
2014-Aug-09 06:33N 40°18' E 121°59'  
Track history (hours):
 
Tides and Currents Weather Stations Pressure Air Temp Water Temp Dewpoint Dewpoint Depression Visibility Wind Speed Wind Dir Waves Ship Positions

Mid Fortune

Last reported at 2014-Aug-19 06:32 UTC. Time now 2014-Aug-20 22:26 UTC.
Position N 23°02' E 117°14'.

Length 147 m; draft 8.2 m.

Type: Tanker. MMSI: 319182000.

Date/timePositionNaut miles runAvg speedWind from/ knotsBaromVisibWave heightAir tempDewpointWater temp
2014-Aug-19 06:32N 23°02' E 117°14'14412.0
2014-Aug-18 18:33N 24°32' E 119°16'  
2014-Aug-16 03:06N 36°42' E 123°44'2012.9
2014-Aug-16 01:32N 37°01' E 123°36'1712.5
2014-Aug-16 00:08N 37°18' E 123°32'712.9
2014-Aug-15 23:33N 37°26' E 123°30'1812.9
2014-Aug-15 22:09N 37°41' E 123°18'1014.0
2014-Aug-15 21:28N 37°48' E 123°10'1412.5
2014-Aug-15 20:18N 37°60' E 122°59'1714.2
2014-Aug-15 19:05N 38°05' E 122°38'4113.9
2014-Aug-15 16:08N 38°18' E 121°48'813.6
2014-Aug-15 15:31N 38°20' E 121°38'6014.1
2014-Aug-15 11:16N 38°36' E 120°24'10512.0
2014-Aug-15 02:32N 38°51' E 118°11'10 9.2
2014-Aug-15 01:26N 38°52' E 117°58'1011.5
2014-Aug-15 00:34N 38°57' E 117°47'1 1.2
2014-Aug-14 23:22N 38°57' E 117°45'0 0.0
2014-Aug-14 22:22N 38°57' E 117°45'0 0.0
2014-Aug-14 21:28N 38°57' E 117°45'0 0.0
2014-Aug-14 20:28N 38°57' E 117°45'0 0.0
2014-Aug-14 19:22N 38°57' E 117°45'0 0.0
2014-Aug-14 18:28N 38°57' E 117°45'0 0.0
2014-Aug-14 17:28N 38°57' E 117°45'0 0.0
2014-Aug-14 16:28N 38°57' E 117°45'0 0.0
2014-Aug-14 15:28N 38°57' E 117°45'0 0.0
2014-Aug-14 14:28N 38°57' E 117°45'0 0.0
2014-Aug-14 13:28N 38°57' E 117°45'0 0.0
2014-Aug-14 12:22N 38°57' E 117°45'0 0.0
2014-Aug-14 11:28N 38°57' E 117°45'0 0.0
2014-Aug-14 10:22N 38°57' E 117°45'0 0.0
2014-Aug-14 09:28N 38°57' E 117°45'0 0.0
2014-Aug-14 08:22N 38°57' E 117°45'0 0.0
2014-Aug-14 07:28N 38°57' E 117°45'0 0.0
2014-Aug-14 06:28N 38°57' E 117°45'0 0.0
2014-Aug-14 05:22N 38°57' E 117°45'0 0.0
2014-Aug-14 04:28N 38°57' E 117°45'0 0.0
2014-Aug-14 03:28N 38°57' E 117°45'0 0.0
2014-Aug-14 02:28N 38°57' E 117°45'0 0.0
2014-Aug-14 01:28N 38°57' E 117°45'0 0.0
2014-Aug-14 00:28N 38°57' E 117°45'0 0.0
2014-Aug-13 23:22N 38°57' E 117°45'0 0.0
2014-Aug-13 22:28N 38°57' E 117°45'0 0.0
2014-Aug-13 21:28N 38°57' E 117°45'0 0.0
2014-Aug-13 20:28N 38°57' E 117°45'0 0.0
2014-Aug-13 19:28N 38°57' E 117°45'0 0.0
2014-Aug-13 18:16N 38°57' E 117°45'0 0.0
2014-Aug-13 17:22N 38°57' E 117°45'0 0.0
2014-Aug-13 16:28N 38°57' E 117°45'0 0.0
2014-Aug-13 15:22N 38°57' E 117°45'0 0.0
2014-Aug-13 14:28N 38°57' E 117°45'0 0.0
2014-Aug-13 13:22N 38°57' E 117°45'0 0.0
2014-Aug-13 12:28N 38°57' E 117°45'0 0.0
2014-Aug-13 11:10N 38°57' E 117°45'0 0.0
2014-Aug-13 10:28N 38°57' E 117°45'0 0.0
2014-Aug-13 09:16N 38°57' E 117°45'0 0.0
2014-Aug-13 08:28N 38°57' E 117°45'0 0.0
2014-Aug-13 07:28N 38°57' E 117°45'0 0.0
2014-Aug-13 06:28N 38°57' E 117°45'0 0.0
2014-Aug-13 05:33N 38°57' E 117°45'4 4.2
2014-Aug-13 04:33N 38°56' E 117°50'8 7.8
2014-Aug-13 03:31N 38°54' E 117°60'0 0.1
2014-Aug-13 02:22N 38°54' E 118°00'0 0.0
2014-Aug-12 21:16N 38°54' E 118°00'0 0.0
2014-Aug-12 20:10N 38°54' E 118°00'0 0.2
2014-Aug-12 19:31N 38°54' E 117°60'0 0.0
2014-Aug-12 17:13N 38°54' E 117°60'0 0.0
2014-Aug-12 16:31N 38°54' E 117°60'0 0.0
2014-Aug-12 15:16N 38°54' E 117°60'0 0.1
2014-Aug-12 14:31N 38°54' E 118°00'0 0.0
2014-Aug-12 12:31N 38°54' E 118°00'0 0.0
2014-Aug-12 11:19N 38°54' E 118°00'0 0.0
2014-Aug-12 10:16N 38°54' E 118°00'0 0.1
2014-Aug-12 09:31N 38°54' E 118°00'0 0.0
2014-Aug-11 22:28N 38°54' E 118°00'0 0.0
2014-Aug-11 21:31N 38°54' E 118°00'0 0.0
2014-Aug-11 20:22N 38°54' E 118°00'0 0.0
2014-Aug-11 17:31N 38°54' E 117°60'0 0.0
2014-Aug-11 16:31N 38°54' E 117°60'0 0.1
2014-Aug-11 15:31N 38°54' E 117°60'0 0.1
2014-Aug-11 14:25N 38°54' E 118°00'0 0.1
2014-Aug-11 13:28N 38°54' E 118°00'0 0.0
2014-Aug-11 12:31N 38°54' E 118°00'0 0.0
2014-Aug-11 11:28N 38°54' E 118°00'0 0.0
2014-Aug-11 10:25N 38°54' E 118°00'0 0.0
2014-Aug-11 09:31N 38°54' E 118°00'0 0.1
2014-Aug-11 08:31N 38°54' E 118°00'0 0.0
2014-Aug-11 02:28N 38°54' E 117°60'0 0.1
2014-Aug-11 01:31N 38°54' E 118°00'0 0.0
2014-Aug-11 00:07N 38°54' E 118°00'0 0.0
2014-Aug-10 22:16N 38°54' E 118°00'0 0.0
2014-Aug-10 21:07N 38°54' E 118°00'0 0.0
2014-Aug-10 18:22N 38°54' E 118°00'0 0.1
2014-Aug-10 17:31N 38°54' E 118°00'0 0.0
2014-Aug-10 16:31N 38°54' E 117°60'0 0.0
2014-Aug-10 15:31N 38°54' E 117°60'0 0.1
2014-Aug-10 14:28N 38°54' E 118°00'0 0.1
2014-Aug-10 13:28N 38°54' E 118°00'0 0.0
2014-Aug-10 12:16N 38°54' E 118°00'0 0.0
2014-Aug-10 11:22N 38°54' E 118°00'0 0.0
2014-Aug-10 10:22N 38°54' E 118°00'0 0.0
2014-Aug-10 09:31N 38°54' E 118°00'0 0.0
2014-Aug-10 08:31N 38°54' E 118°00'0 0.0
2014-Aug-10 07:31N 38°54' E 118°00'0 0.1
2014-Aug-10 06:31N 38°54' E 118°00'0 0.1
2014-Aug-10 05:31N 38°54' E 117°60'0 0.1
2014-Aug-10 04:31N 38°54' E 117°60'0 0.0
2014-Aug-10 03:13N 38°54' E 117°60'0 0.1
2014-Aug-10 01:19N 38°54' E 118°00'0 0.1
2014-Aug-10 00:17N 38°54' E 118°00'5 5.3
2014-Aug-09 23:26N 38°55' E 118°06'10511.5
2014-Aug-09 14:19N 39°14' E 120°19'1113.7
2014-Aug-09 13:29N 39°19' E 120°32'8912.8
2014-Aug-09 06:33N 40°18' E 121°59'  

Dump ship's entire track history